Time;durP1;ratioP1;P1;durP2;ratioP2;P2;SDS_P1;SDS_P2;PMS_P1;PMS_P2;Temp;Humidity;BMP_temperature;BMP_pressure;BME280_temperature;BME280_humidity;BME280_pressure;Samples;Min_cycle;Max_cycle;Signal;HPM_P1;HPM_P2
2023/03/02 00:02:09;;;;;;;37.37;16.70;;;1.20;70.30;;;4.73;44.33;97725.78;5073134;28;20045;-45
2023/03/02 00:04:46;;;;;;;48.17;19.47;;;1.20;70.30;;;4.71;44.33;97720.63;5040473;28;20040;-43
2023/03/02 00:07:21;;;;;;;40.63;18.17;;;1.10;70.40;;;4.71;44.86;97725.91;5048632;28;20044;-47
2023/03/02 00:09:49;;;;;;;34.70;17.70;;;1.10;70.50;;;4.72;44.96;97719.66;5072833;28;20066;-44
2023/03/02 00:12:16;;;;;;;37.93;17.77;;;1.20;70.10;;;4.74;44.92;97716.88;5055037;28;20111;-42
2023/03/02 00:14:44;;;;;;;32.93;16.37;;;1.20;70.00;;;4.73;45.12;97718.69;5072632;28;20052;-44
2023/03/02 00:17:12;;;;;;;30.80;17.10;;;1.20;70.00;;;4.70;44.62;97724.22;5073160;28;20045;-46
2023/03/02 00:19:39;;;;;;;32.90;15.50;;;1.20;70.20;;;4.70;44.84;97716.28;5073063;28;20055;-43
2023/03/02 00:22:07;;;;;;;30.10;15.73;;;1.20;70.50;;;4.72;45.13;97717.00;5073222;28;20043;-46
2023/03/02 00:24:37;;;;;;;35.50;15.53;;;1.20;70.40;;;4.74;44.75;97714.25;5055293;28;20242;-46
2023/03/02 00:27:05;;;;;;;26.63;14.80;;;1.20;70.30;;;4.74;45.10;97723.00;5054966;28;20403;-46
2023/03/02 00:29:32;;;;;;;27.27;15.60;;;1.20;70.50;;;4.76;44.93;97720.25;5055090;28;20045;-44
2023/03/02 00:32:02;;;;;;;27.53;15.00;;;1.20;70.80;;;4.77;45.37;97715.78;5063014;28;20048;-44
2023/03/02 00:34:32;;;;;;;26.33;13.80;;;1.30;70.60;;;4.78;44.91;97709.56;5063161;28;20052;-43
2023/03/02 00:37:00;;;;;;;23.50;13.90;;;1.30;70.20;;;4.75;45.13;97705.41;5072341;28;20047;-46
2023/03/02 00:39:27;;;;;;;28.00;14.60;;;1.30;70.30;;;4.77;44.73;97706.09;5072457;28;20047;-43
2023/03/02 00:41:55;;;;;;;26.43;14.70;;;1.30;70.60;;;4.79;45.06;97706.81;5072293;28;20504;-42
2023/03/02 00:44:22;;;;;;;26.33;14.37;;;1.30;70.50;;;4.80;45.37;97705.00;5054297;28;20060;-44
2023/03/02 00:46:50;;;;;;;23.77;14.67;;;1.30;70.50;;;4.80;44.89;97705.00;5053689;28;20041;-42
2023/03/02 00:49:17;;;;;;;26.30;14.33;;;1.30;70.60;;;4.74;45.17;97704.53;5072455;28;20047;-43
2023/03/02 00:51:45;;;;;;;28.90;14.77;;;1.20;71.00;;;4.72;44.94;97701.19;5053921;28;20044;-44
2023/03/02 00:54:13;;;;;;;27.17;16.00;;;1.20;71.10;;;4.70;45.84;97703.09;5072159;28;20456;-44
2023/03/02 00:56:42;;;;;;;27.30;15.77;;;1.20;71.00;;;4.69;45.53;97701.44;5053886;28;20049;-42
2023/03/02 00:59:27;;;;;;;28.87;15.17;;;1.20;71.20;;;4.70;45.58;97704.91;5033892;28;20049;-42
2023/03/02 01:02:08;;;;;;;28.77;14.93;;;1.20;71.50;;;4.68;45.49;97705.03;5070084;28;20036;-42
2023/03/02 01:04:40;;;;;;;30.70;15.93;;;1.20;71.30;;;4.68;45.43;97702.38;5062331;28;20041;-43
2023/03/02 01:07:14;;;;;;;31.43;15.67;;;1.20;71.70;;;4.66;45.75;97699.03;5072258;28;20044;-45
2023/03/02 01:09:44;;;;;;;25.57;14.13;;;1.10;71.70;;;4.66;45.38;97692.94;5062129;28;20056;-43
2023/03/02 01:12:11;;;;;;;31.57;16.70;;;1.10;71.80;;;4.62;45.49;97688.88;5054067;28;20036;-42
2023/03/02 01:14:46;;;;;;;31.83;16.27;;;1.10;71.90;;;4.60;45.49;97689.00;5061614;28;20049;-46
2023/03/02 01:17:14;;;;;;;28.70;16.37;;;1.00;72.20;;;4.60;46.04;97685.53;5063874;28;20040;-44
2023/03/02 01:19:42;;;;;;;32.57;18.30;;;1.00;72.20;;;4.58;46.02;97685.63;5071687;28;20040;-47
2023/03/02 01:22:10;;;;;;;29.47;17.37;;;1.00;72.40;;;4.60;45.49;97685.53;5061806;28;20043;-44
2023/03/02 01:24:37;;;;;;;33.27;18.63;;;1.00;72.40;;;4.55;46.06;97683.22;5053524;28;20048;-42
2023/03/02 01:27:05;;;;;;;27.17;16.47;;;1.00;72.60;;;4.53;46.00;97683.34;5071263;28;20044;-45
2023/03/02 01:29:33;;;;;;;35.07;18.53;;;1.00;72.80;;;4.51;45.76;97676.53;5071587;28;20055;-42
2023/03/02 01:32:01;;;;;;;30.57;16.63;;;0.90;73.00;;;4.50;45.88;97675.69;5053094;28;20044;-44
2023/03/02 01:34:29;;;;;;;31.77;17.30;;;0.90;72.90;;;4.49;45.78;97681.09;5058462;28;20056;-42
2023/03/02 01:36:56;;;;;;;39.33;20.70;;;1.00;73.20;;;4.49;46.13;97674.00;5051692;28;20055;-45
2023/03/02 01:39:24;;;;;;;32.83;19.17;;;1.00;72.90;;;4.47;46.28;97669.84;5071527;28;20044;-45
2023/03/02 01:41:52;;;;;;;33.67;19.37;;;0.90;73.00;;;4.45;46.19;97675.22;5053159;28;20387;-46
2023/03/02 01:44:47;;;;;;;36.60;19.97;;;0.90;73.00;;;4.42;45.67;97667.56;5053201;28;20048;-46
2023/03/02 01:47:32;;;;;;;;;;;0.90;73.50;;;4.40;45.51;97666.00;5063891;28;20401;-43
2023/03/02 01:50:35;;;;;;;36.13;19.37;;;0.90;74.00;;;4.41;45.64;97665.88;5038373;28;20415;-42
2023/03/02 01:53:03;;;;;;;34.33;19.38;;;0.90;73.50;;;4.46;46.09;97661.09;5050715;28;20455;-44
2023/03/02 01:55:35;;;;;;;35.13;20.77;;;0.90;73.10;;;4.47;45.69;97659.28;5053406;28;20044;-42
2023/03/02 01:58:04;;;;;;;37.73;21.40;;;0.90;73.00;;;4.44;46.16;97652.47;5053745;28;20514;-44
2023/03/02 02:00:37;;;;;;;38.17;20.23;;;0.90;73.10;;;4.45;46.38;97648.84;5053123;28;20506;-43
2023/03/02 02:03:19;;;;;;;35.08;20.58;;;0.90;73.00;;;4.45;46.08;97646.22;5037314;28;20041;-43
2023/03/02 02:06:16;;;;;;;35.97;21.40;;;1.00;73.10;;;4.41;45.93;97643.97;5054287;28;20480;-42
2023/03/02 02:08:46;;;;;;;33.87;18.43;;;1.00;72.80;;;4.46;45.97;97642.63;5048855;28;20068;-44
2023/03/02 02:11:13;;;;;;;37.27;20.10;;;0.90;73.20;;;4.46;45.91;97639.16;5053166;28;20036;-44
2023/03/02 02:13:42;;;;;;;32.80;17.87;;;0.90;72.80;;;4.42;46.05;97635.94;5052826;28;20040;-43
2023/03/02 02:16:10;;;;;;;32.00;16.67;;;0.90;72.90;;;4.44;46.38;97635.78;5052779;28;20048;-42
2023/03/02 02:18:39;;;;;;;30.70;16.83;;;1.00;73.00;;;4.46;46.44;97639.16;5036261;28;20053;-42
2023/03/02 02:21:07;;;;;;;30.07;18.37;;;1.00;72.90;;;4.44;45.93;97636.66;5070659;28;20053;-48
2023/03/02 02:24:10;;;;;;;31.23;16.97;;;0.90;73.10;;;4.37;45.68;97640.72;5070939;28;20033;-46
2023/03/02 02:26:47;;;;;;;31.73;18.13;;;0.90;73.10;;;4.41;46.43;97631.63;5047040;28;20519;-42
2023/03/02 02:29:32;;;;;;;31.50;17.00;;;0.90;74.00;;;4.38;46.12;97629.25;5053437;28;20036;-43
2023/03/02 02:32:31;;;;;;;26.53;16.13;;;0.90;73.20;;;4.38;46.04;97629.25;5052268;28;20048;-43
2023/03/02 02:35:15;;;;;;;32.87;19.27;;;0.80;73.20;;;4.34;45.87;97614.59;5053245;28;20056;-43
2023/03/02 02:37:51;;;;;;;32.22;17.58;;;0.80;73.40;;;4.32;45.93;97619.16;5044778;28;20040;-42
2023/03/02 02:40:45;;;;;;;31.60;16.87;;;0.70;73.50;;;4.24;46.27;97617.13;5036633;28;20063;-46
2023/03/02 02:43:19;;;;;;;30.77;16.40;;;0.70;74.10;;;4.27;46.41;97616.91;5052259;28;20049;-43
2023/03/02 02:45:51;;;;;;;32.50;18.20;;;0.80;73.90;;;4.26;46.64;97620.50;5044682;28;20364;-42
2023/03/02 02:48:23;;;;;;;35.97;17.93;;;0.70;73.70;;;4.27;46.16;97609.00;5035711;28;20052;-44
2023/03/02 02:50:58;;;;;;;32.63;16.63;;;0.70;74.00;;;4.27;46.08;97613.44;5072973;28;20053;-42
2023/03/02 02:53:49;;;;;;;36.47;17.33;;;0.80;73.80;;;4.26;46.17;97617.03;5067091;28;20040;-46
2023/03/02 02:56:18;;;;;;;26.13;16.37;;;0.80;73.70;;;4.24;46.37;97611.88;5042535;28;20083;-42
2023/03/02 02:58:52;;;;;;;30.07;16.50;;;0.70;73.70;;;4.22;46.40;97605.06;5056613;28;20040;-44
2023/03/02 03:01:25;;;;;;;28.33;16.90;;;0.70;73.70;;;4.25;46.65;97612.72;5048988;28;20411;-45
2023/03/02 03:04:02;;;;;;;29.33;16.20;;;0.80;73.70;;;4.23;46.19;97612.00;5040357;28;20412;-42
2023/03/02 03:06:37;;;;;;;32.37;18.00;;;0.80;73.80;;;4.24;46.78;97613.69;5047842;28;20044;-42
2023/03/02 03:09:06;;;;;;;33.13;16.37;;;0.70;73.70;;;4.23;46.08;97609.38;5055754;28;20055;-42
2023/03/02 03:11:47;;;;;;;30.47;16.43;;;0.70;73.80;;;4.21;46.32;97613.94;5055960;28;20052;-44
2023/03/02 03:14:23;;;;;;;30.95;17.70;;;0.70;73.90;;;4.20;46.39;97618.34;5056237;28;20048;-43
2023/03/02 03:16:52;;;;;;;25.87;15.63;;;0.70;74.00;;;4.19;46.92;97611.41;5055397;28;20044;-43
2023/03/02 03:19:29;;;;;;;33.13;16.47;;;0.60;73.90;;;4.13;46.50;97617.19;5066200;28;20048;-44
2023/03/02 03:22:00;;;;;;;32.07;16.13;;;0.60;74.20;;;4.10;46.88;97612.13;5048018;28;20092;-45
2023/03/02 03:24:33;;;;;;;33.43;17.57;;;0.50;74.40;;;4.07;46.86;97601.84;5055912;28;20400;-48
2023/03/02 03:27:04;;;;;;;32.53;17.00;;;0.50;74.70;;;4.05;46.91;97607.25;5073276;28;20032;-44
2023/03/02 03:29:37;;;;;;;31.60;17.07;;;0.50;74.80;;;4.03;47.19;97603.03;5055395;28;20049;-43
2023/03/02 03:32:07;;;;;;;30.63;16.52;;;0.40;74.70;;;4.00;46.81;97596.22;5055435;28;20049;-42
2023/03/02 03:34:40;;;;;;;30.43;16.53;;;0.40;74.80;;;4.01;46.71;97602.31;5064217;28;20064;-41
2023/03/02 03:37:41;;;;;;;29.05;15.75;;;0.40;75.00;;;4.00;47.23;97598.03;5068046;28;20040;-43
2023/03/02 03:40:11;;;;;;;29.90;16.67;;;0.40;75.10;;;3.98;46.55;97594.69;5062962;28;20446;-43
2023/03/02 03:42:42;;;;;;;31.00;17.57;;;0.40;74.80;;;3.99;46.54;97609.50;5055506;28;20045;-42
2023/03/02 03:45:10;;;;;;;34.87;17.10;;;0.40;74.90;;;3.97;46.97;97604.34;5038445;28;20048;-43
2023/03/02 03:47:39;;;;;;;32.87;17.27;;;0.40;74.80;;;3.97;46.94;97606.16;5074113;28;20036;-43
2023/03/02 03:50:09;;;;;;;31.10;16.90;;;0.40;74.70;;;3.94;46.74;97604.63;5055098;28;20043;-43
2023/03/02 03:52:37;;;;;;;27.20;15.40;;;0.40;74.70;;;3.95;47.08;97611.53;5055582;28;20041;-44
2023/03/02 03:55:11;;;;;;;28.88;16.60;;;0.50;75.00;;;3.97;46.80;97614.88;5054879;28;20048;-42
2023/03/02 03:57:41;;;;;;;35.73;19.03;;;0.50;74.60;;;4.00;46.86;97622.56;5054899;28;20045;-43
2023/03/02 04:00:16;;;;;;;29.63;17.03;;;0.50;74.70;;;3.99;47.31;97612.97;5054530;28;20400;-42
2023/03/02 04:02:53;;;;;;;;;;;0.50;74.50;;;3.90;46.74;97618.97;5041097;28;20044;-43
2023/03/02 04:05:20;;;;;;;26.97;15.73;;;0.50;75.00;;;3.98;47.11;97613.13;5054619;28;20383;-44
2023/03/02 04:07:52;;;;;;;30.87;15.90;;;0.40;74.90;;;3.94;46.84;97615.16;5054559;28;20045;-43
2023/03/02 04:10:20;;;;;;;29.27;16.87;;;0.40;74.80;;;3.94;47.05;97617.78;5054528;28;20488;-42
2023/03/02 04:12:50;;;;;;;31.87;16.70;;;0.40;74.90;;;3.91;47.27;97623.28;5054917;28;20052;-45
2023/03/02 04:15:18;;;;;;;32.77;16.03;;;0.40;75.30;;;3.92;47.11;97620.53;5054607;28;20040;-42
2023/03/02 04:17:48;;;;;;;34.20;17.83;;;0.40;75.00;;;3.91;47.20;97624.09;5046691;28;20049;-42
2023/03/02 04:20:20;;;;;;;32.60;17.07;;;0.50;74.90;;;3.91;46.86;97620.66;5054863;28;20469;-43
2023/03/02 04:22:53;;;;;;;31.83;17.00;;;0.50;74.70;;;3.94;47.38;97623.06;5063360;28;20052;-42
2023/03/02 04:25:25;;;;;;;32.43;15.73;;;0.50;74.80;;;3.95;47.48;97614.19;5054523;28;20445;-43
2023/03/02 04:27:57;;;;;;;33.43;16.50;;;0.50;74.90;;;3.97;47.07;97625.44;5054249;28;20052;-42
2023/03/02 04:30:28;;;;;;;33.00;16.97;;;0.50;74.70;;;3.98;47.00;97616.59;5054740;28;20053;-44
2023/03/02 04:32:56;;;;;;;33.13;16.57;;;0.50;74.70;;;3.97;46.72;97624.59;5062924;28;20415;-42
2023/03/02 04:35:27;;;;;;;35.10;18.73;;;0.50;74.40;;;3.97;46.83;97630.69;5044664;28;20044;-43
2023/03/02 04:37:54;;;;;;;25.83;16.13;;;0.40;74.30;;;3.94;46.97;97623.88;5071886;28;20041;-42
2023/03/02 04:40:22;;;;;;;30.63;17.60;;;0.50;74.60;;;3.95;47.00;97632.63;5062761;28;20067;-43
2023/03/02 04:42:49;;;;;;;32.60;16.90;;;0.40;74.20;;;3.92;47.53;97622.34;5054721;28;20033;-42
2023/03/02 04:45:17;;;;;;;31.03;15.93;;;0.40;74.60;;;3.93;47.04;97624.81;5072300;28;20049;-42
2023/03/02 04:47:45;;;;;;;34.07;16.97;;;0.40;74.50;;;3.92;46.63;97622.34;5072571;28;20063;-42
2023/03/02 04:50:14;;;;;;;31.73;16.13;;;0.40;74.50;;;3.93;47.10;97631.91;5072264;28;20044;-42
2023/03/02 04:52:41;;;;;;;37.40;17.63;;;0.40;74.60;;;3.91;47.16;97628.56;5072297;28;20040;-44
2023/03/02 04:55:19;;;;;;;31.03;16.00;;;0.40;74.30;;;3.86;46.97;97628.09;5071966;28;20048;-42
2023/03/02 04:57:47;;;;;;;31.67;17.53;;;0.40;74.50;;;3.85;47.35;97621.97;5072426;28;20067;-43
2023/03/02 05:00:18;;;;;;;30.20;15.63;;;0.30;74.70;;;3.85;47.21;97621.97;5054471;28;20052;-42
2023/03/02 05:02:46;;;;;;;31.07;16.30;;;0.30;74.70;;;3.82;47.15;97631.88;5072343;28;20040;-42
2023/03/02 05:05:19;;;;;;;29.93;17.10;;;0.30;74.90;;;3.79;47.10;97618.97;5071732;28;20045;-43
2023/03/02 05:07:47;;;;;;;30.23;16.80;;;0.20;74.80;;;3.78;46.91;97623.41;5071722;28;20036;-42
2023/03/02 05:10:17;;;;;;;29.20;16.70;;;0.30;75.00;;;3.80;47.47;97620.63;5071113;28;20052;-43
2023/03/02 05:12:57;;;;;;;30.40;15.37;;;0.30;74.90;;;3.79;47.09;97622.44;5072137;28;20412;-43
2023/03/02 05:15:29;;;;;;;30.10;16.80;;;0.30;74.80;;;3.79;47.08;97621.63;5055674;28;20044;-43
2023/03/02 05:17:57;;;;;;;31.33;18.03;;;0.30;74.90;;;3.79;46.99;97619.81;5071891;28;20047;-43
2023/03/02 05:20:26;;;;;;;33.10;17.47;;;0.30;74.70;;;3.80;47.30;97620.63;5071677;28;20056;-45
2023/03/02 05:23:00;;;;;;;34.23;19.30;;;0.30;74.80;;;3.79;47.44;97614.53;5054329;28;20488;-43
2023/03/02 05:25:31;;;;;;;30.63;17.83;;;0.30;74.70;;;3.79;47.11;97622.44;5071667;28;20510;-42
2023/03/02 05:28:00;;;;;;;30.87;17.30;;;0.30;74.70;;;3.78;46.85;97615.53;5071701;28;20492;-42
2023/03/02 05:30:29;;;;;;;32.83;18.27;;;0.20;74.90;;;3.77;47.23;97613.81;5063603;28;20040;-46
2023/03/02 05:32:57;;;;;;;32.83;18.10;;;0.20;75.10;;;3.75;46.90;97623.66;5071465;28;20052;-43
2023/03/02 05:35:25;;;;;;;36.17;19.47;;;0.20;74.90;;;3.74;47.04;97621.94;5071232;28;20045;-42
2023/03/02 05:37:52;;;;;;;34.57;19.40;;;0.20;74.70;;;3.73;46.88;97620.28;5071135;28;20041;-42
2023/03/02 05:40:20;;;;;;;36.47;18.80;;;0.20;74.70;;;3.69;47.23;97616.22;5071507;28;20052;-44
2023/03/02 05:42:48;;;;;;;35.53;18.17;;;0.10;75.00;;;3.68;47.35;97615.41;5071470;28;20072;-42
2023/03/02 05:45:42;;;;;;;32.30;17.83;;;0.10;74.80;;;3.61;46.88;97614.19;5052514;28;20427;-43
2023/03/02 05:48:12;;;;;;;34.17;18.23;;;0.10;75.00;;;3.67;47.37;97613.69;5068904;28;20514;-42
2023/03/02 05:50:40;;;;;;;36.03;19.40;;;0.10;74.80;;;3.65;46.97;97610.34;5071335;28;20410;-43
2023/03/02 05:53:08;;;;;;;37.10;20.43;;;0.10;74.90;;;3.66;47.38;97622.53;5071243;28;20048;-42
2023/03/02 05:55:35;;;;;;;43.07;21.60;;;0.10;75.00;;;3.67;47.02;97623.41;5071031;28;20036;-43
2023/03/02 05:58:07;;;;;;;45.60;23.13;;;0.10;75.20;;;3.65;47.12;97620.88;5071231;28;20048;-45
2023/03/02 06:00:35;;;;;;;43.97;22.37;;;0.10;75.20;;;3.64;47.36;97624.47;5053757;28;20041;-43
2023/03/02 06:03:03;;;;;;;47.83;22.97;;;0.10;75.20;;;3.64;47.16;97624.47;5071212;28;20045;-43
2023/03/02 06:05:30;;;;;;;40.43;22.63;;;0.10;75.00;;;3.64;47.10;97629.72;5071359;28;20047;-42
2023/03/02 06:07:58;;;;;;;40.87;21.27;;;0.10;75.10;;;3.59;47.32;97621.34;5071245;28;20397;-42
2023/03/02 06:10:26;;;;;;;39.53;21.03;;;0.00;75.10;;;3.60;47.43;97625.66;5052735;28;20037;-42
2023/03/02 06:12:53;;;;;;;33.67;20.37;;;0.00;75.20;;;3.58;47.50;97626.75;5071172;28;20044;-43
2023/03/02 06:15:21;;;;;;;36.73;21.13;;;0.00;75.30;;;3.55;47.26;97631.28;5052946;28;20159;-45
2023/03/02 06:17:49;;;;;;;40.67;19.60;;;0.00;75.40;;;3.56;47.50;97634.75;5071061;28;20045;-45
2023/03/02 06:20:17;;;;;;;37.53;21.17;;;0.00;75.70;;;3.56;47.63;97642.66;5070792;28;20055;-42
2023/03/02 06:22:46;;;;;;;35.67;19.83;;;0.00;76.00;;;3.61;47.54;97647.56;5070788;28;20055;-42
2023/03/02 06:25:25;;;;;;;37.20;20.20;;;0.00;75.70;;;3.61;47.20;97645.78;5070707;28;20388;-44
2023/03/02 06:27:53;;;;;;;34.87;18.87;;;0.10;75.90;;;3.69;47.78;97647.81;5071164;28;20325;-43
2023/03/02 06:30:24;;;;;;;32.97;17.87;;;0.20;75.70;;;3.72;47.58;97648.44;5070713;28;20045;-43
2023/03/02 06:32:52;;;;;;;39.30;19.70;;;0.20;75.70;;;3.76;47.66;97651.63;5053134;28;20036;-44
2023/03/02 06:35:19;;;;;;;40.03;20.47;;;0.20;75.70;;;3.81;47.73;97651.31;5070539;28;20060;-44
2023/03/02 06:37:47;;;;;;;41.63;21.57;;;0.20;75.70;;;3.85;47.40;97656.19;5053268;28;20036;-43
2023/03/02 06:40:15;;;;;;;40.33;19.13;;;0.30;75.70;;;3.90;47.93;97655.88;5060926;28;20396;-41
2023/03/02 06:42:42;;;;;;;35.77;18.47;;;0.40;75.50;;;3.94;47.54;97658.13;5070532;28;20047;-43
2023/03/02 06:45:10;;;;;;;40.30;19.97;;;0.40;75.30;;;3.98;48.15;97657.91;5052262;28;20227;-44
2023/03/02 06:47:38;;;;;;;37.13;20.00;;;0.50;75.60;;;4.01;48.00;97660.28;5070383;28;20520;-42
2023/03/02 06:50:07;;;;;;;47.10;24.60;;;0.50;75.70;;;4.06;47.70;97658.13;5051859;28;20048;-42
2023/03/02 06:52:35;;;;;;;36.40;20.53;;;0.50;75.60;;;4.14;47.84;97659.19;5053214;28;20103;-43
2023/03/02 06:55:03;;;;;;;45.37;21.03;;;0.60;75.40;;;4.20;47.67;97657.03;5069986;28;20408;-42
2023/03/02 06:57:34;;;;;;;31.13;17.83;;;0.70;75.30;;;4.25;47.46;97657.53;5070552;28;20037;-42
2023/03/02 07:00:32;;;;;;;33.70;19.87;;;0.80;75.00;;;4.21;48.01;97659.56;5069824;28;20063;-41
2023/03/02 07:03:00;;;;;;;36.77;19.53;;;0.90;75.10;;;4.34;47.89;97664.69;5066176;28;20048;-45
2023/03/02 07:05:30;;;;;;;37.10;18.00;;;0.90;75.00;;;4.39;47.63;97659.06;5070174;28;20041;-42
2023/03/02 07:07:59;;;;;;;46.80;21.57;;;0.90;74.80;;;4.46;47.06;97673.41;5070496;28;20045;-42
2023/03/02 07:10:26;;;;;;;38.17;21.57;;;0.90;74.80;;;4.49;47.39;97670.53;5070260;28;20041;-44
2023/03/02 07:12:54;;;;;;;36.70;21.73;;;0.90;74.90;;;4.55;47.67;97672.69;5070310;28;20056;-43
2023/03/02 07:15:22;;;;;;;34.07;19.27;;;1.00;74.80;;;4.60;47.95;97665.25;5052417;28;20071;-47
2023/03/02 07:17:49;;;;;;;35.17;18.63;;;1.10;74.70;;;4.65;47.46;97668.38;5061142;28;20045;-42
2023/03/02 07:20:19;;;;;;;31.50;17.03;;;1.10;74.50;;;4.70;47.82;97668.00;5070193;28;20045;-44
2023/03/02 07:22:46;;;;;;;38.07;19.90;;;1.20;74.50;;;4.73;47.20;97676.50;5070268;28;20047;-42
2023/03/02 07:25:14;;;;;;;38.93;19.60;;;1.20;74.30;;;4.80;47.45;97673.34;5069498;28;20044;-41
2023/03/02 07:27:41;;;;;;;34.70;20.30;;;1.30;74.20;;;4.85;47.07;97673.84;5070138;28;20480;-42
2023/03/02 07:30:10;;;;;;;34.00;18.67;;;1.40;74.10;;;4.91;47.35;97682.06;5069877;28;20044;-43
2023/03/02 07:32:38;;;;;;;39.50;20.07;;;1.50;74.20;;;4.99;47.06;97670.91;5070431;28;20048;-42
2023/03/02 07:35:06;;;;;;;42.30;22.33;;;1.50;73.70;;;5.02;47.12;97672.44;5055972;28;20044;-43
2023/03/02 07:37:33;;;;;;;37.40;20.60;;;1.50;73.50;;;5.06;47.09;97676.50;5060161;28;20519;-42
2023/03/02 07:40:02;;;;;;;33.47;17.63;;;1.50;73.50;;;5.12;47.48;97676.84;5073800;28;20096;-42
2023/03/02 07:42:29;;;;;;;37.67;19.60;;;1.60;73.80;;;5.16;47.81;97682.72;5073707;28;20152;-41
2023/03/02 07:45:00;;;;;;;39.00;20.30;;;1.60;73.50;;;5.21;47.55;97687.59;5055472;28;20044;-43
2023/03/02 07:47:27;;;;;;;35.93;19.73;;;1.60;73.50;;;5.25;47.26;97683.75;5073702;28;20044;-42
2023/03/02 07:49:55;;;;;;;37.40;19.30;;;1.70;73.70;;;5.29;46.97;97679.88;5073395;28;20408;-43
2023/03/02 07:52:22;;;;;;;43.00;21.23;;;1.70;73.10;;;5.30;47.48;97685.03;5073563;28;20041;-42
2023/03/02 07:54:50;;;;;;;40.97;19.30;;;1.70;72.70;;;5.30;46.92;97689.50;5073252;28;20051;-44
2023/03/02 07:57:17;;;;;;;40.63;22.60;;;1.80;72.70;;;5.32;46.91;97693.66;5073330;28;20045;-44
2023/03/02 07:59:45;;;;;;;42.30;22.17;;;1.80;72.70;;;5.38;47.18;97697.59;5073364;28;20036;-42
2023/03/02 08:02:15;;;;;;;43.77;22.97;;;1.90;72.60;;;5.42;47.36;97696.38;5073113;28;20420;-43
2023/03/02 08:04:42;;;;;;;41.83;21.13;;;2.00;72.30;;;5.48;47.08;97692.41;5072724;28;20036;-42
2023/03/02 08:07:10;;;;;;;40.00;18.63;;;2.00;72.10;;;5.50;46.59;97696.56;5072958;28;20280;-42
2023/03/02 08:09:38;;;;;;;36.17;20.63;;;2.10;71.60;;;5.51;46.87;97695.63;5072514;28;20044;-42
2023/03/02 08:12:06;;;;;;;33.50;16.60;;;2.10;72.00;;;5.53;47.61;97695.50;5073146;28;20041;-44
2023/03/02 08:14:34;;;;;;;39.20;22.47;;;2.10;72.20;;;5.61;47.21;97702.78;5073095;28;20047;-43
2023/03/02 08:17:04;;;;;;;49.53;25.43;;;2.20;72.30;;;5.66;46.76;97696.16;5062442;28;20075;-44
2023/03/02 08:19:32;;;;;;;41.43;22.93;;;2.20;72.00;;;5.71;47.27;97699.22;5073212;28;20040;-43
2023/03/02 08:22:01;;;;;;;37.80;20.20;;;2.30;72.10;;;5.80;46.81;97702.09;5073113;28;20473;-43
2023/03/02 08:24:28;;;;;;;33.07;19.03;;;2.40;72.00;;;5.85;47.11;97698.06;5055234;28;20093;-49
2023/03/02 08:27:00;;;;;;;42.10;22.80;;;2.40;72.20;;;5.89;46.71;97702.13;5073015;28;20029;-45
2023/03/02 08:29:29;;;;;;;37.30;19.70;;;2.50;71.70;;;5.92;47.44;97698.38;5072756;28;20435;-44
2023/03/02 08:31:57;;;;;;;43.83;22.83;;;2.60;71.60;;;5.98;47.17;97700.53;5055369;28;20040;-44
2023/03/02 08:34:26;;;;;;;35.90;20.17;;;2.60;71.30;;;6.02;47.26;97694.00;5072814;28;20055;-43
2023/03/02 08:36:53;;;;;;;30.33;17.97;;;2.60;71.60;;;6.10;46.92;97702.13;5054744;28;20045;-46
2023/03/02 08:39:22;;;;;;;33.20;17.20;;;2.70;71.50;;;6.17;46.86;97699.78;5072615;28;20052;-45
2023/03/02 08:41:52;;;;;;;32.77;17.90;;;2.70;71.70;;;6.23;46.35;97696.63;5072617;28;20040;-45
2023/03/02 08:44:21;;;;;;;30.60;17.03;;;2.70;71.90;;;6.30;46.84;97696.91;5071714;28;20044;-44
2023/03/02 08:46:49;;;;;;;39.43;17.03;;;2.80;71.80;;;6.38;46.80;97697.09;5071819;28;20036;-45
2023/03/02 08:49:18;;;;;;;34.03;17.47;;;2.90;72.10;;;6.44;46.55;97693.91;5072414;28;20049;-43
2023/03/02 08:51:47;;;;;;;28.67;17.33;;;3.00;71.70;;;6.50;46.93;97688.09;5045659;28;20040;-43
2023/03/02 08:54:15;;;;;;;38.03;18.40;;;3.00;71.30;;;6.51;46.44;97688.91;5072289;28;20048;-44
2023/03/02 08:56:43;;;;;;;31.20;17.20;;;3.00;71.40;;;6.49;46.92;97677.63;5072626;28;20403;-44
2023/03/02 08:59:12;;;;;;;29.30;17.00;;;3.00;71.60;;;6.49;46.33;97681.16;5072522;28;20056;-43
2023/03/02 09:01:41;;;;;;;27.27;15.77;;;3.00;71.30;;;6.44;46.67;97672.75;5054129;28;20041;-45
2023/03/02 09:04:10;;;;;;;25.10;15.87;;;3.00;71.30;;;6.45;46.38;97670.94;5071999;28;20056;-46
2023/03/02 09:06:41;;;;;;;26.17;16.03;;;3.00;71.40;;;6.45;46.76;97671.78;5071930;28;20044;-43
2023/03/02 09:09:10;;;;;;;32.63;16.90;;;3.00;71.10;;;6.45;46.60;97671.78;5065509;28;20511;-43
2023/03/02 09:11:39;;;;;;;30.23;15.67;;;3.00;71.10;;;6.47;46.53;97672.47;5062364;28;20037;-44
2023/03/02 09:14:07;;;;;;;30.70;15.13;;;3.00;71.30;;;6.50;46.81;97679.31;5066580;28;20049;-44
2023/03/02 09:16:34;;;;;;;30.33;15.07;;;3.00;71.20;;;6.52;46.45;97674.75;5065039;28;20053;-44
2023/03/02 09:19:02;;;;;;;27.77;15.10;;;3.00;71.10;;;6.54;46.76;97678.09;5065633;28;20063;-46
2023/03/02 09:21:29;;;;;;;32.53;15.63;;;3.10;71.10;;;6.57;46.15;97683.13;5064879;28;20364;-47
2023/03/02 09:23:57;;;;;;;31.70;16.07;;;3.10;70.90;;;6.56;46.46;97676.13;5065080;28;20044;-45
2023/03/02 09:26:26;;;;;;;32.03;18.47;;;3.10;71.00;;;6.60;46.32;97676.72;5065271;28;20543;-44
2023/03/02 09:28:54;;;;;;;29.03;14.97;;;3.20;71.10;;;6.65;46.08;97687.69;5065649;28;20412;-44
2023/03/02 09:31:22;;;;;;;26.03;14.53;;;3.20;70.90;;;6.64;45.98;97676.28;5064195;28;20262;-47
2023/03/02 09:33:50;;;;;;;26.60;15.33;;;3.20;70.80;;;6.66;46.98;97679.63;5065210;28;20475;-46
2023/03/02 09:36:22;;;;;;;28.60;15.73;;;3.30;70.80;;;6.71;46.40;97673.94;5065766;28;20530;-45
2023/03/02 09:38:49;;;;;;;27.43;16.30;;;3.30;70.50;;;6.71;46.67;97681.88;5065338;28;20468;-45
2023/03/02 09:41:20;;;;;;;28.47;15.47;;;3.30;70.60;;;6.74;46.48;97676.31;5065218;28;20082;-43
2023/03/02 09:43:59;;;;;;;25.90;14.80;;;3.30;70.60;;;6.73;46.64;97673.78;5066035;28;20044;-48
2023/03/02 09:46:50;;;;;;;33.93;15.50;;;3.20;70.80;;;6.75;46.65;97675.34;5066152;28;20071;-44
2023/03/02 09:49:54;;;;;;;27.30;14.87;;;3.30;71.20;;;6.77;46.41;97678.69;5047361;28;20504;-46
2023/03/02 09:52:39;;;;;;;25.13;14.07;;;3.40;71.20;;;6.82;46.67;97680.91;5065767;28;20045;-45
2023/03/02 09:55:18;;;;;;;27.23;14.07;;;3.50;71.00;;;6.85;46.38;97681.50;5050215;28;20044;-43
2023/03/02 09:57:46;;;;;;;25.90;14.67;;;3.50;70.80;;;6.92;46.23;97681.78;5031509;28;20052;-45
2023/03/02 10:00:49;;;;;;;25.30;14.57;;;3.60;70.70;;;6.89;46.84;97685.53;5063661;28;20044;-50
2023/03/02 10:03:26;;;;;;;27.40;14.53;;;3.70;70.30;;;6.99;46.22;97674.97;5003143;28;20034;-45
2023/03/02 10:05:56;;;;;;;26.53;15.37;;;3.70;70.30;;;7.03;46.81;97681.63;5056322;28;20057;-45
2023/03/02 10:08:28;;;;;;;26.47;15.43;;;3.80;70.30;;;7.10;46.07;97680.13;5065928;28;20052;-46
2023/03/02 10:11:35;;;;;;;25.17;15.03;;;3.80;70.10;;;7.13;46.40;97684.28;5062924;28;20264;-43
2023/03/02 10:14:16;;;;;;;26.47;14.23;;;3.90;69.60;;;7.22;45.88;97695.88;5047842;28;20052;-46
2023/03/02 10:16:51;;;;;;;24.77;15.83;;;3.90;69.70;;;7.32;46.34;97687.94;5048865;28;20522;-44
2023/03/02 10:19:27;;;;;;;29.13;15.53;;;4.00;69.90;;;7.38;46.20;97695.31;5048964;28;20047;-46
2023/03/02 10:22:27;;;;;;;24.30;15.13;;;4.10;69.60;;;7.36;46.29;97691.97;5048645;28;20045;-43
2023/03/02 10:25:07;;;;;;;22.53;13.03;;;4.10;69.60;;;7.45;45.75;97691.97;5048955;28;20041;-43
2023/03/02 10:27:43;;;;;;;23.83;13.90;;;4.10;69.20;;;7.48;46.21;97689.06;5065201;28;20051;-44
2023/03/02 10:30:18;;;;;;;25.73;14.23;;;4.20;69.20;;;7.52;45.75;97691.41;5065852;28;20049;-46
2023/03/02 10:32:50;;;;;;;28.47;15.20;;;4.20;68.60;;;7.51;46.02;97687.94;5064111;28;20044;-47
2023/03/02 10:35:22;;;;;;;30.53;15.60;;;4.20;69.10;;;7.55;46.19;97694.63;5065058;28;20049;-43
2023/03/02 10:38:00;;;;;;;25.57;14.83;;;4.20;69.30;;;7.61;46.15;97693.22;5063031;28;20044;-45
2023/03/02 10:41:01;;;;;;;31.07;15.20;;;4.30;69.20;;;7.68;46.13;97699.63;5048476;28;20056;-43